Time;durP1;ratioP1;P1;durP2;ratioP2;P2;SDS_P1;SDS_P2;PMS_P1;PMS_P2;Temp;Humidity;BMP_temperature;BMP_pressure;BME280_temperature;BME280_humidity;BME280_pressure;Samples;Min_cycle;Max_cycle;Signal;HPM_P1;HPM_P2
2022/09/22 00:01:32;;;;;;;14.00;1.90;;;19.40;99.90;;;;;;5054082;28;20205;-69
2022/09/22 00:04:04;;;;;;;10.63;2.80;;;19.50;99.90;;;;;;5060012;28;20211;-70
2022/09/22 00:06:38;;;;;;;8.73;2.00;;;19.60;99.90;;;;;;5052979;28;20216;-69
2022/09/22 00:09:12;;;;;;;11.87;2.23;;;19.90;99.90;;;;;;5060797;28;20259;-70
2022/09/22 00:11:45;;;;;;;12.83;2.53;;;20.10;99.90;;;;;;5055008;28;20697;-70
2022/09/22 00:14:16;;;;;;;12.33;2.33;;;20.20;99.90;;;;;;5067252;28;20186;-69
2022/09/22 00:16:53;;;;;;;8.20;1.90;;;19.90;99.90;;;;;;5071513;28;20704;-68
2022/09/22 00:19:21;;;;;;;9.20;2.33;;;19.50;99.90;;;;;;5065108;28;20181;-69
2022/09/22 00:21:49;;;;;;;11.13;2.27;;;19.30;99.90;;;;;;5052497;28;20180;-69
2022/09/22 00:24:18;;;;;;;17.97;2.43;;;19.10;99.90;;;;;;5067153;28;20180;-69
2022/09/22 00:26:46;;;;;;;13.23;2.20;;;19.00;99.90;;;;;;5072325;28;20689;-71
2022/09/22 00:29:15;;;;;;;11.17;2.30;;;19.10;99.90;;;;;;5072219;28;20184;-70
2022/09/22 00:31:44;;;;;;;14.37;2.70;;;19.10;99.90;;;;;;5072424;28;20187;-69
2022/09/22 00:34:17;;;;;;;15.60;2.63;;;19.20;99.90;;;;;;5072566;28;20194;-69
2022/09/22 00:36:48;;;;;;;13.67;2.57;;;19.30;99.90;;;;;;5071670;28;20320;-68
2022/09/22 00:39:17;;;;;;;10.53;2.10;;;19.30;99.90;;;;;;5072367;28;20591;-68
2022/09/22 00:41:47;;;;;;;8.33;2.03;;;19.20;99.90;;;;;;5072268;28;20278;-69
2022/09/22 00:44:34;;;;;;;10.73;2.50;;;19.20;99.90;;;;;;5070077;28;20183;-69
2022/09/22 00:47:07;;;;;;;16.73;2.63;;;19.20;99.90;;;;;;5061962;28;20239;-69
2022/09/22 00:50:03;;;;;;;10.33;2.10;;;19.20;99.90;;;;;;5059003;28;20758;-69
2022/09/22 00:52:39;;;;;;;12.17;2.10;;;19.30;99.90;;;;;;5042140;28;20574;-69
2022/09/22 00:55:15;;;;;;;10.93;2.40;;;19.10;99.90;;;;;;5076892;28;20652;-70
2022/09/22 00:57:44;;;;;;;13.80;2.30;;;19.00;99.90;;;;;;5076609;28;20516;-69
2022/09/22 01:00:14;;;;;;;13.30;2.40;;;19.00;99.90;;;;;;5072171;28;20183;-69
2022/09/22 01:02:43;;;;;;;10.10;2.43;;;18.90;99.90;;;;;;5071287;28;20257;-68
2022/09/22 01:05:11;;;;;;;18.10;2.83;;;18.90;99.90;;;;;;5071680;28;20184;-68
2022/09/22 01:07:38;;;;;;;18.10;2.93;;;18.90;99.90;;;;;;5071410;28;20230;-69
2022/09/22 01:10:06;;;;;;;13.37;2.57;;;19.00;99.90;;;;;;5070489;28;20176;-68
2022/09/22 01:12:36;;;;;;;21.97;3.23;;;19.10;99.90;;;;;;5068802;28;20193;-68
2022/09/22 01:15:19;;;;;;;10.23;2.03;;;19.10;99.90;;;;;;5071751;28;20216;-69
2022/09/22 01:18:05;;;;;;;16.87;2.30;;;19.10;99.90;;;;;;5071572;28;20226;-69
2022/09/22 01:20:39;;;;;;;15.13;2.80;;;19.20;99.90;;;;;;5071403;28;20180;-69
2022/09/22 01:23:23;;;;;;;14.10;2.93;;;19.20;99.90;;;;;;5071714;28;20172;-68
2022/09/22 01:26:06;;;;;;;9.33;2.20;;;18.80;99.90;;;;;;5071827;28;20230;-68
2022/09/22 01:28:42;;;;;;;9.80;1.93;;;18.80;99.90;;;;;;5071860;28;20667;-69
2022/09/22 01:31:12;;;;;;;15.97;2.53;;;18.90;99.90;;;;;;5058013;28;20182;-68
2022/09/22 01:33:54;;;;;;;11.87;2.83;;;19.00;99.90;;;;;;5058384;28;20202;-71
2022/09/22 01:36:30;;;;;;;9.60;2.23;;;18.90;99.90;;;;;;5069758;28;20211;-68
2022/09/22 01:39:16;;;;;;;12.37;2.00;;;19.10;99.90;;;;;;5070401;28;20230;-70
2022/09/22 01:41:53;;;;;;;12.73;2.53;;;19.30;99.90;;;;;;5071619;28;20564;-70
2022/09/22 01:44:39;;;;;;;11.83;2.30;;;19.50;99.90;;;;;;5071766;28;20183;-71
2022/09/22 01:47:10;;;;;;;12.80;2.53;;;19.50;99.90;;;;;;5072323;28;20186;-71
2022/09/22 01:49:45;;;;;;;10.33;2.20;;;19.60;99.90;;;;;;5072343;28;20191;-71
2022/09/22 01:52:29;;;;;;;11.87;2.47;;;19.70;99.90;;;;;;5074367;28;20734;-72
2022/09/22 01:55:02;;;;;;;10.80;2.30;;;19.70;99.90;;;;;;5095410;28;20202;-72
2022/09/22 01:58:04;;;;;;;10.40;2.03;;;19.40;99.90;;;;;;5094766;28;20204;-69
2022/09/22 02:00:32;;;;;;;7.20;2.00;;;19.20;99.90;;;;;;5077326;28;20210;-69
2022/09/22 02:03:26;;;;;;;10.07;2.20;;;18.90;99.90;;;;;;5051786;28;20200;-71
2022/09/22 02:06:17;;;;;;;13.60;2.30;;;18.90;99.90;;;;;;5051616;28;20287;-70
2022/09/22 02:08:58;;;;;;;10.67;2.30;;;18.90;99.90;;;;;;5056557;28;20191;-70
2022/09/22 02:11:26;;;;;;;11.10;2.17;;;19.00;99.90;;;;;;5062443;28;20180;-69
2022/09/22 02:13:54;;;;;;;8.70;2.53;;;19.10;99.90;;;;;;5071072;28;20184;-69
2022/09/22 02:16:24;;;;;;;7.67;1.97;;;19.20;99.90;;;;;;5071368;28;20211;-69
2022/09/22 02:18:57;;;;;;;10.40;2.30;;;19.30;99.90;;;;;;5071289;28;20192;-68
2022/09/22 02:21:29;;;;;;;7.97;1.97;;;19.30;99.90;;;;;;5069447;28;20622;-71
2022/09/22 02:23:59;;;;;;;10.93;2.23;;;19.50;99.90;;;;;;5072159;28;20182;-68
2022/09/22 02:26:31;;;;;;;9.20;1.70;;;19.50;99.90;;;;;;5075025;28;20273;-68
2022/09/22 02:29:12;;;;;;;7.77;1.93;;;19.60;99.90;;;;;;5073691;28;20581;-69
2022/09/22 02:31:40;;;;;;;10.83;1.70;;;19.80;99.90;;;;;;5074727;28;20648;-68
2022/09/22 02:34:08;;;;;;;8.60;1.97;;;19.80;99.90;;;;;;5074737;28;20183;-68
2022/09/22 02:37:02;;;;;;;6.37;1.97;;;19.80;99.90;;;;;;5074796;28;20219;-71
2022/09/22 02:39:49;;;;;;;7.87;2.23;;;19.80;99.90;;;;;;5074950;28;20187;-74
2022/09/22 02:42:28;;;;;;;7.70;1.50;;;19.80;99.90;;;;;;5074849;28;20176;-68
2022/09/22 02:45:08;;;;;;;9.20;2.00;;;19.80;99.90;;;;;;5074071;28;20176;-72
2022/09/22 02:47:50;;;;;;;7.50;2.10;;;19.80;99.90;;;;;;5074872;28;20177;-69
2022/09/22 02:50:20;;;;;;;5.30;2.00;;;19.60;99.90;;;;;;5068987;28;20188;-68
2022/09/22 02:52:52;;;;;;;4.97;1.70;;;19.50;99.90;;;;;;5073060;28;20199;-71
2022/09/22 02:55:20;;;;;;;6.13;2.03;;;19.50;99.90;;;;;;5075115;28;20180;-71
2022/09/22 02:57:47;;;;;;;7.90;1.80;;;19.50;99.90;;;;;;5075016;28;20233;-71
2022/09/22 03:00:15;;;;;;;6.17;1.60;;;19.40;99.90;;;;;;5074424;28;20176;-71
2022/09/22 03:02:43;;;;;;;5.50;1.70;;;19.40;99.90;;;;;;5070796;28;20200;-71
2022/09/22 03:05:10;;;;;;;5.13;1.63;;;19.50;99.90;;;;;;5074159;28;20195;-70
2022/09/22 03:07:38;;;;;;;5.60;1.63;;;19.70;99.90;;;;;;5073715;28;20205;-70
2022/09/22 03:10:06;;;;;;;6.37;1.67;;;19.70;99.90;;;;;;5073944;28;20194;-69
2022/09/22 03:12:34;;;;;;;4.47;1.50;;;19.70;99.90;;;;;;5073719;28;20190;-71
2022/09/22 03:15:01;;;;;;;3.47;1.30;;;19.70;99.90;;;;;;5074411;28;20178;-70
2022/09/22 03:17:30;;;;;;;6.23;2.30;;;19.60;99.90;;;;;;5075163;28;20560;-69
2022/09/22 03:19:58;;;;;;;4.30;1.87;;;19.60;99.90;;;;;;5074895;28;20219;-70
2022/09/22 03:22:25;;;;;;;4.43;1.40;;;19.70;99.90;;;;;;5074677;28;20176;-71
2022/09/22 03:24:53;;;;;;;3.67;1.53;;;19.80;99.90;;;;;;5074850;28;20219;-70
2022/09/22 03:27:21;;;;;;;4.57;1.80;;;19.70;99.90;;;;;;5073786;28;20635;-67
2022/09/22 03:29:49;;;;;;;7.60;1.53;;;19.80;99.90;;;;;;5066526;28;20187;-73
2022/09/22 03:32:17;;;;;;;4.00;1.40;;;19.90;99.90;;;;;;5069391;28;20179;-67
2022/09/22 03:34:44;;;;;;;4.37;1.50;;;19.90;99.90;;;;;;5074658;28;20181;-68
2022/09/22 03:37:12;;;;;;;6.13;1.27;;;20.00;99.90;;;;;;5075332;28;20204;-67
2022/09/22 03:39:40;;;;;;;5.70;1.53;;;20.10;99.90;;;;;;5077035;28;20215;-68
2022/09/22 03:42:11;;;;;;;5.37;1.57;;;20.20;99.90;;;;;;5075636;28;20211;-68
2022/09/22 03:44:39;;;;;;;3.07;1.47;;;20.40;99.90;;;;;;5064893;28;20172;-69
2022/09/22 03:47:07;;;;;;;4.80;1.73;;;20.50;99.90;;;;;;5068160;28;20223;-68
2022/09/22 03:49:34;;;;;;;5.23;3.00;;;20.60;99.90;;;;;;5075033;28;20183;-68
2022/09/22 03:52:03;;;;;;;8.37;3.00;;;20.50;99.90;;;;;;5074700;28;20540;-69
2022/09/22 03:54:31;;;;;;;7.30;2.77;;;20.40;99.90;;;;;;5074750;28;20210;-68
2022/09/22 03:56:58;;;;;;;6.40;1.70;;;20.30;99.90;;;;;;5074702;28;20562;-69
2022/09/22 03:59:26;;;;;;;3.83;2.27;;;20.40;99.90;;;;;;5074864;28;20197;-68
2022/09/22 04:01:54;;;;;;;3.10;1.53;;;20.60;99.90;;;;;;5074764;28;20195;-67
2022/09/22 04:04:22;;;;;;;2.20;1.30;;;20.70;99.90;;;;;;5073548;28;20618;-68
2022/09/22 04:06:49;;;;;;;5.27;1.77;;;20.70;99.90;;;;;;5074980;28;20172;-67
2022/09/22 04:09:17;;;;;;;5.27;1.73;;;20.60;99.90;;;;;;5074547;28;20511;-72
2022/09/22 04:11:48;;;;;;;6.80;1.70;;;20.30;99.90;;;;;;5072318;28;20190;-67
2022/09/22 04:14:17;;;;;;;2.93;1.43;;;20.30;99.90;;;;;;5064782;28;20648;-74
2022/09/22 04:16:46;;;;;;;6.17;1.70;;;20.30;99.90;;;;;;5064014;28;20267;-68
2022/09/22 04:19:14;;;;;;;3.17;1.50;;;20.20;99.90;;;;;;5061522;28;20180;-69
2022/09/22 04:21:42;;;;;;;4.80;2.07;;;20.00;99.90;;;;;;5063279;28;20173;-69
2022/09/22 04:24:10;;;;;;;7.23;1.93;;;19.60;99.90;;;;;;5061801;28;20200;-67
2022/09/22 04:26:40;;;;;;;6.10;2.00;;;19.30;99.90;;;;;;5062373;28;20311;-67
2022/09/22 04:29:08;;;;;;;13.30;3.73;;;19.10;99.90;;;;;;5055564;28;20249;-68
2022/09/22 04:31:37;;;;;;;17.33;3.30;;;19.10;99.90;;;;;;5054133;28;20546;-68
2022/09/22 04:34:05;;;;;;;17.60;8.33;;;19.10;99.90;;;;;;5061552;28;20180;-67
2022/09/22 04:36:33;;;;;;;6.07;2.00;;;19.20;99.90;;;;;;5062478;28;20206;-67
2022/09/22 04:39:02;;;;;;;10.70;3.50;;;19.30;99.90;;;;;;5063289;28;20584;-67
2022/09/22 04:41:31;;;;;;;9.17;1.97;;;19.50;99.90;;;;;;5056643;28;20177;-68
2022/09/22 04:43:59;;;;;;;7.00;1.80;;;19.60;99.90;;;;;;5053847;28;20178;-67
2022/09/22 04:46:26;;;;;;;5.17;2.00;;;19.70;99.90;;;;;;5053904;28;20169;-68
2022/09/22 04:48:54;;;;;;;11.27;2.30;;;20.10;99.90;;;;;;5054104;28;20182;-68
2022/09/22 04:51:22;;;;;;;6.83;2.00;;;20.20;99.90;;;;;;5054209;28;20272;-68
2022/09/22 04:53:50;;;;;;;9.23;2.83;;;20.30;99.90;;;;;;5054297;28;20171;-68
2022/09/22 04:56:17;;;;;;;7.70;2.40;;;20.50;99.90;;;;;;5054376;28;20205;-74
2022/09/22 04:58:45;;;;;;;8.57;4.00;;;20.50;99.90;;;;;;5054109;28;20266;-68
2022/09/22 05:01:13;;;;;;;22.13;10.67;;;20.60;99.90;;;;;;5054174;28;20176;-69
2022/09/22 05:03:41;;;;;;;16.83;7.57;;;20.50;99.90;;;;;;5054121;28;20172;-73
2022/09/22 05:06:10;;;;;;;8.53;2.97;;;20.60;99.90;;;;;;5058865;28;20663;-67
2022/09/22 05:08:38;;;;;;;9.43;3.00;;;20.40;99.90;;;;;;5067460;28;20185;-70
2022/09/22 05:11:08;;;;;;;5.70;1.80;;;20.40;99.90;;;;;;5074174;28;20169;-67
2022/09/22 05:13:39;;;;;;;8.47;2.03;;;20.50;99.90;;;;;;5073410;28;20206;-68
2022/09/22 05:16:08;;;;;;;7.67;2.13;;;20.50;99.90;;;;;;5072714;28;20264;-68
2022/09/22 05:18:36;;;;;;;9.80;2.13;;;20.40;99.90;;;;;;5071074;28;20187;-67
2022/09/22 05:21:06;;;;;;;13.20;6.00;;;20.30;99.90;;;;;;5073229;28;20288;-67
2022/09/22 05:23:34;;;;;;;15.93;5.03;;;20.00;99.90;;;;;;5073823;28;20202;-67
2022/09/22 05:26:02;;;;;;;8.53;2.17;;;19.90;99.90;;;;;;5074267;28;20222;-68
2022/09/22 05:28:30;;;;;;;6.07;1.67;;;19.70;99.90;;;;;;5072607;28;20187;-74
2022/09/22 05:30:58;;;;;;;8.03;2.67;;;19.50;99.90;;;;;;5072855;28;20296;-68
2022/09/22 05:33:26;;;;;;;9.50;2.30;;;19.30;99.90;;;;;;5054145;28;20218;-68
2022/09/22 05:35:55;;;;;;;11.20;3.03;;;19.30;99.90;;;;;;5058942;28;20755;-68
2022/09/22 05:38:23;;;;;;;14.87;7.23;;;19.40;99.90;;;;;;5065314;28;20284;-68
2022/09/22 05:40:50;;;;;;;11.90;4.10;;;19.40;99.90;;;;;;5067830;28;20183;-68
2022/09/22 05:43:18;;;;;;;7.37;2.37;;;19.30;99.90;;;;;;5072075;28;20179;-67
2022/09/22 05:45:46;;;;;;;7.57;1.93;;;19.20;99.90;;;;;;5068240;28;20612;-69
2022/09/22 05:48:14;;;;;;;7.30;2.27;;;19.20;99.90;;;;;;5062869;28;20195;-68
2022/09/22 05:50:45;;;;;;;13.10;2.77;;;19.10;99.90;;;;;;5071053;28;20183;-68
2022/09/22 05:53:13;;;;;;;7.43;2.10;;;19.00;99.90;;;;;;5063647;28;20184;-70
2022/09/22 05:55:42;;;;;;;7.87;2.17;;;19.00;99.90;;;;;;5051672;28;20200;-69
2022/09/22 05:58:13;;;;;;;9.97;2.50;;;19.00;99.90;;;;;;5066351;28;20191;-69
2022/09/22 06:00:43;;;;;;;11.97;3.43;;;19.00;99.90;;;;;;5075802;28;20200;-68
2022/09/22 06:03:11;;;;;;;7.73;2.47;;;19.00;99.90;;;;;;5075776;28;20172;-69
2022/09/22 06:05:39;;;;;;;12.87;3.43;;;19.00;99.90;;;;;;5075584;28;20557;-68
2022/09/22 06:08:08;;;;;;;6.07;2.50;;;19.00;99.90;;;;;;5074438;28;20526;-70
2022/09/22 06:10:38;;;;;;;11.40;2.47;;;19.00;99.90;;;;;;5056239;28;20584;-69
2022/09/22 06:13:09;;;;;;;6.20;2.57;;;19.00;99.90;;;;;;5075358;28;20641;-67
2022/09/22 06:15:38;;;;;;;9.53;2.80;;;19.00;99.90;;;;;;5075682;28;20208;-69
2022/09/22 06:18:08;;;;;;;9.03;2.10;;;19.00;99.90;;;;;;5074687;28;20305;-68
2022/09/22 06:20:36;;;;;;;8.00;3.20;;;19.00;99.90;;;;;;5075444;28;20200;-68
2022/09/22 06:23:07;;;;;;;10.03;2.73;;;19.00;99.90;;;;;;5090241;28;20203;-67
2022/09/22 06:25:35;;;;;;;6.27;2.30;;;18.90;99.90;;;;;;5096919;28;20234;-68
2022/09/22 06:28:05;;;;;;;12.13;2.57;;;18.90;99.90;;;;;;5095188;28;20172;-68
2022/09/22 06:30:39;;;;;;;8.07;1.87;;;18.80;99.90;;;;;;5055428;28;20176;-68
2022/09/22 06:33:08;;;;;;;6.30;2.13;;;18.70;99.90;;;;;;5055307;28;20181;-68
2022/09/22 06:35:36;;;;;;;8.03;2.50;;;18.60;99.90;;;;;;5055249;28;20173;-68
2022/09/22 06:38:09;;;;;;;4.43;1.77;;;18.60;99.90;;;;;;5056562;28;20696;-69
2022/09/22 06:40:37;;;;;;;9.33;1.90;;;18.50;99.90;;;;;;5061001;28;20188;-69
2022/09/22 06:43:11;;;;;;;7.70;2.33;;;18.50;99.90;;;;;;5067704;28;20258;-69
2022/09/22 06:45:42;;;;;;;8.73;2.03;;;18.50;99.90;;;;;;5074927;28;20177;-68
2022/09/22 06:48:12;;;;;;;11.07;2.13;;;18.40;99.90;;;;;;5074725;28;20186;-69
2022/09/22 06:50:48;;;;;;;7.13;2.13;;;18.40;99.90;;;;;;5074946;28;20377;-69
2022/09/22 06:53:17;;;;;;;8.83;2.17;;;18.30;99.90;;;;;;5074762;28;20288;-69
2022/09/22 06:55:46;;;;;;;7.77;2.23;;;18.30;99.90;;;;;;5074689;28;20196;-71
2022/09/22 06:58:16;;;;;;;5.73;1.80;;;18.30;99.90;;;;;;5074711;28;20187;-71
2022/09/22 07:00:44;;;;;;;6.80;2.30;;;18.40;99.90;;;;;;5074578;28;20783;-70
2022/09/22 07:03:19;;;;;;;8.40;2.47;;;18.40;99.90;;;;;;5074228;28;20198;-68
2022/09/22 07:06:04;;;;;;;6.50;2.07;;;18.40;99.90;;;;;;5073504;28;20657;-68
2022/09/22 07:08:34;;;;;;;4.33;1.63;;;18.40;99.90;;;;;;5073094;28;20178;-69
2022/09/22 07:11:06;;;;;;;7.07;2.00;;;18.40;99.90;;;;;;5073208;28;20187;-70
2022/09/22 07:13:37;;;;;;;5.40;2.07;;;18.30;99.90;;;;;;5074578;28;20221;-68
2022/09/22 07:16:08;;;;;;;10.33;2.50;;;18.30;99.90;;;;;;5074498;28;20207;-69
2022/09/22 07:18:41;;;;;;;3.47;1.80;;;18.40;99.90;;;;;;5074038;28;20192;-69
2022/09/22 07:21:24;;;;;;;8.03;2.33;;;18.30;99.90;;;;;;5074332;28;20195;-69
2022/09/22 07:23:54;;;;;;;10.40;2.20;;;18.30;99.90;;;;;;5073145;28;20184;-69
2022/09/22 07:26:29;;;;;;;6.07;1.63;;;18.30;99.90;;;;;;5073389;28;20292;-69
2022/09/22 07:28:59;;;;;;;10.40;2.37;;;18.30;99.90;;;;;;5074128;28;20699;-70
2022/09/22 07:31:29;;;;;;;10.37;3.23;;;18.20;99.90;;;;;;5073976;28;20172;-69
2022/09/22 07:34:00;;;;;;;12.40;3.93;;;18.20;99.90;;;;;;5073543;28;20584;-70
2022/09/22 07:36:30;;;;;;;9.60;3.37;;;18.10;99.90;;;;;;5074173;28;20237;-69
2022/09/22 07:39:06;;;;;;;6.37;2.33;;;18.10;99.90;;;;;;5073983;28;20184;-69
2022/09/22 07:41:42;;;;;;;11.20;3.67;;;18.10;99.90;;;;;;5073773;28;20262;-70
2022/09/22 07:47:02;;;;;;;10.53;3.03;;;18.10;99.90;;;;;;5074153;28;20191;-69
2022/09/22 07:49:30;;;;;;;8.37;2.23;;;18.00;99.90;;;;;;5073787;28;20264;-68
2022/09/22 07:51:58;;;;;;;7.67;2.30;;;18.00;99.90;;;;;;5070184;28;20196;-69
2022/09/22 07:54:27;;;;;;;11.97;3.50;;;18.00;99.90;;;;;;5094288;28;20312;-69
2022/09/22 07:57:00;;;;;;;14.43;2.50;;;17.90;99.90;;;;;;5078952;28;20232;-69
2022/09/22 07:59:28;;;;;;;10.93;2.57;;;17.90;99.90;;;;;;5074029;28;20270;-70
2022/09/22 08:01:56;;;;;;;10.77;2.47;;;17.90;99.90;;;;;;5074498;28;20179;-70
2022/09/22 08:04:25;;;;;;;8.67;2.13;;;17.80;99.90;;;;;;5073664;28;20180;-69
2022/09/22 08:06:54;;;;;;;9.83;2.60;;;17.80;99.90;;;;;;5074085;28;20187;-70
2022/09/22 08:09:30;;;;;;;10.73;2.83;;;17.80;99.90;;;;;;5074102;28;20259;-69
2022/09/22 08:11:58;;;;;;;8.03;2.93;;;17.80;99.90;;;;;;5054878;28;20224;-68
2022/09/22 08:14:27;;;;;;;8.00;2.23;;;17.80;99.90;;;;;;5068926;28;20186;-70
2022/09/22 08:16:55;;;;;;;6.30;1.83;;;17.80;99.90;;;;;;5074547;28;20208;-70
2022/09/22 08:19:23;;;;;;;9.40;2.03;;;17.70;99.90;;;;;;5074832;28;20222;-69
2022/09/22 08:21:53;;;;;;;11.20;2.37;;;17.60;99.90;;;;;;5072419;28;20862;-70
2022/09/22 08:24:22;;;;;;;9.03;2.17;;;17.50;99.90;;;;;;5071851;28;20202;-70
2022/09/22 08:26:54;;;;;;;7.63;1.93;;;17.30;99.90;;;;;;5073541;28;20231;-69
2022/09/22 08:29:23;;;;;;;13.63;2.23;;;17.20;99.90;;;;;;5072768;28;20208;-68
2022/09/22 08:31:53;;;;;;;10.47;2.20;;;17.20;99.90;;;;;;5073096;28;20265;-68
2022/09/22 08:34:22;;;;;;;12.93;2.67;;;17.20;99.90;;;;;;5072797;28;20191;-69
2022/09/22 08:36:50;;;;;;;10.17;2.87;;;17.20;99.90;;;;;;5072888;28;20248;-70
2022/09/22 08:39:19;;;;;;;13.27;2.60;;;17.20;99.90;;;;;;5072617;28;20190;-70
2022/09/22 08:42:00;;;;;;;8.47;2.20;;;17.20;99.90;;;;;;5072519;28;20237;-70
2022/09/22 08:44:49;;;;;;;9.50;2.50;;;17.10;99.90;;;;;;5072606;28;20228;-69
2022/09/22 08:53:42;;;;;;;11.37;2.60;;;16.90;99.90;;;;;;5071680;28;20195;-69
2022/09/22 08:56:22;;;;;;;8.40;2.60;;;16.90;99.90;;;;;;5072561;28;20584;-69
2022/09/22 08:59:13;;;;;;;10.63;3.20;;;16.80;99.90;;;;;;5072662;28;20180;-70
2022/09/22 09:02:17;;;;;;;8.80;2.10;;;16.80;99.90;;;;;;5064278;28;20216;-69
2022/09/22 09:05:09;;;;;;;12.27;2.60;;;16.70;99.90;;;;;;5071990;28;20172;-69
2022/09/22 09:08:04;;;;;;;9.77;2.83;;;16.80;99.90;;;;;;5072883;28;20176;-69
2022/09/22 09:10:47;;;;;;;6.73;2.53;;;16.80;99.90;;;;;;5072384;28;20675;-71
2022/09/22 09:13:57;;;;;;;9.30;2.60;;;16.70;99.90;;;;;;5072389;28;20533;-69
2022/09/22 09:16:50;;;;;;;10.40;2.73;;;16.70;99.90;;;;;;5072754;28;20557;-69
2022/09/22 09:19:23;;;;;;;10.27;2.50;;;16.70;99.90;;;;;;5072069;28;20704;-69
2022/09/22 09:21:56;;;;;;;10.67;2.97;;;16.70;99.90;;;;;;5072403;28;20205;-70
2022/09/22 09:24:29;;;;;;;7.57;2.60;;;16.70;99.90;;;;;;5071127;28;20214;-70
2022/09/22 09:27:20;;;;;;;8.93;2.30;;;16.70;99.90;;;;;;5072185;28;20726;-70
2022/09/22 09:30:17;;;;;;;12.80;2.67;;;16.60;99.90;;;;;;5072204;28;20551;-70
2022/09/22 09:32:59;;;;;;;11.23;2.43;;;16.60;99.90;;;;;;5071105;28;20175;-69
2022/09/22 09:35:44;;;;;;;10.00;3.03;;;16.50;99.90;;;;;;5071673;28;20175;-69
2022/09/22 09:38:16;;;;;;;8.30;2.70;;;16.50;99.90;;;;;;5072265;28;20281;-70
2022/09/22 09:40:51;;;;;;;13.60;3.10;;;16.50;99.90;;;;;;5072057;28;20725;-70
2022/09/22 09:43:21;;;;;;;10.70;2.43;;;16.40;99.90;;;;;;5072109;28;20205;-68
2022/09/22 09:46:23;;;;;;;5.43;2.00;;;16.40;99.90;;;;;;5072180;28;20167;-69
2022/09/22 09:49:01;;;;;;;6.27;1.80;;;16.50;99.90;;;;;;5070935;28;20179;-70
2022/09/22 09:51:30;;;;;;;7.57;1.87;;;16.50;99.90;;;;;;5072201;28;20215;-70
2022/09/22 09:54:04;;;;;;;8.67;2.13;;;16.40;99.90;;;;;;5071134;28;20648;-70
2022/09/22 09:56:36;;;;;;;12.47;2.10;;;16.40;99.90;;;;;;5074099;28;20652;-70
2022/09/22 10:01:55;;;;;;;6.07;2.23;;;16.40;99.90;;;;;;5072346;28;20188;-68
2022/09/22 10:04:40;;;;;;;4.57;2.10;;;16.40;99.90;;;;;;5071788;28;20199;-69
2022/09/22 10:07:26;;;;;;;3.80;1.97;;;16.40;99.90;;;;;;5071924;28;20184;-69
2022/09/22 10:10:17;;;;;;;5.27;2.07;;;16.40;99.90;;;;;;5072179;28;20287;-69
2022/09/22 10:12:45;;;;;;;6.37;2.30;;;16.40;99.90;;;;;;5072476;28;20229;-69
2022/09/22 10:15:25;;;;;;;7.87;2.10;;;16.40;99.90;;;;;;5073128;28;20577;-70
2022/09/22 10:17:53;;;;;;;7.73;2.23;;;16.40;99.90;;;;;;5072103;28;20239;-70
2022/09/22 10:20:30;;;;;;;6.60;1.70;;;16.40;99.90;;;;;;5073204;28;20212;-69
2022/09/22 10:23:20;;;;;;;5.67;2.00;;;16.40;99.90;;;;;;5080989;28;20202;-69
2022/09/22 10:25:56;;;;;;;9.10;2.10;;;16.40;99.90;;;;;;5093852;28;20240;-70
2022/09/22 10:28:25;;;;;;;5.90;2.03;;;16.40;99.90;;;;;;5088417;28;20191;-68
2022/09/22 10:31:02;;;;;;;5.13;1.67;;;16.40;99.90;;;;;;5072088;28;20188;-69
2022/09/22 10:33:32;;;;;;;6.63;2.40;;;16.40;99.90;;;;;;5073381;28;20538;-70
2022/09/22 10:36:12;;;;;;;7.40;2.00;;;16.40;99.90;;;;;;5071014;28;20228;-70
2022/09/22 10:38:43;;;;;;;4.93;2.17;;;16.40;99.90;;;;;;5071953;28;20234;-68
2022/09/22 10:41:26;;;;;;;9.43;2.50;;;16.40;99.90;;;;;;5071674;28;20191;-69
2022/09/22 10:44:20;;;;;;;3.90;2.00;;;16.40;99.90;;;;;;5069924;28;20184;-69
2022/09/22 10:47:00;;;;;;;3.43;1.67;;;16.30;99.90;;;;;;5075285;28;20164;-70
2022/09/22 10:49:56;;;;;;;6.07;2.00;;;16.40;99.90;;;;;;5075181;28;20397;-69
2022/09/22 10:52:41;;;;;;;6.87;2.10;;;16.40;99.90;;;;;;5054555;28;20195;-70
2022/09/22 10:55:52;;;;;;;8.50;2.27;;;16.40;99.90;;;;;;5075221;28;20179;-68
2022/09/22 10:58:52;;;;;;;5.33;2.20;;;16.40;99.90;;;;;;5052339;28;20661;-68
2022/09/22 11:01:40;;;;;;;9.33;2.53;;;16.40;99.90;;;;;;5071533;28;20195;-68
2022/09/22 11:04:30;;;;;;;9.00;2.37;;;16.40;99.90;;;;;;5067298;28;20183;-69
2022/09/22 11:13:22;;;;;;;8.43;3.23;;;16.30;99.90;;;;;;5067931;28;20706;-69
2022/09/22 11:16:08;;;;;;;7.60;2.40;;;16.30;99.90;;;;;;5074541;28;20208;-70
2022/09/22 11:19:21;;;;;;;5.83;2.57;;;16.30;99.90;;;;;;5073232;28;20241;-68
2022/09/22 11:22:07;;;;;;;9.80;2.73;;;16.30;99.90;;;;;;5058161;28;20613;-69
2022/09/22 11:25:26;;;;;;;9.80;2.90;;;16.30;99.90;;;;;;5074588;28;20199;-69
2022/09/22 11:28:12;;;;;;;9.47;2.63;;;16.20;99.90;;;;;;5054164;28;20199;-68
2022/09/22 11:31:05;;;;;;;8.20;2.87;;;16.20;99.90;;;;;;5074025;28;20680;-70
2022/09/22 11:34:05;;;;;;;7.03;2.67;;;16.20;99.90;;;;;;5071614;28;20202;-68
2022/09/22 11:36:56;;;;;;;9.07;2.43;;;16.30;99.90;;;;;;5073074;28;20627;-69
2022/09/22 11:39:50;;;;;;;10.70;2.63;;;16.30;99.90;;;;;;5072748;28;20188;-68
2022/09/22 11:42:27;;;;;;;7.40;2.40;;;16.20;99.90;;;;;;5067354;28;20181;-69
2022/09/22 11:45:04;;;;;;;11.77;2.47;;;16.30;99.90;;;;;;5062609;28;20188;-69
2022/09/22 11:47:54;;;;;;;5.47;2.57;;;16.30;99.90;;;;;;5054304;28;20184;-69
2022/09/22 11:50:38;;;;;;;7.67;2.67;;;16.30;99.90;;;;;;5056112;28;20238;-68
2022/09/22 11:53:11;;;;;;;6.27;2.50;;;16.30;99.90;;;;;;5073359;28;20201;-69
2022/09/22 11:56:23;;;;;;;9.63;2.43;;;16.30;99.90;;;;;;5073306;28;20168;-69
2022/09/22 11:58:55;;;;;;;12.13;3.43;;;16.30;99.90;;;;;;5058053;28;20692;-70
2022/09/22 12:01:30;;;;;;;7.67;2.73;;;16.30;99.90;;;;;;5073149;28;20195;-70
2022/09/22 12:04:43;;;;;;;8.80;3.20;;;16.30;99.90;;;;;;5073265;28;20183;-70
2022/09/22 12:07:29;;;;;;;8.30;2.70;;;16.30;99.90;;;;;;5011147;28;20213;-69
2022/09/22 12:10:02;;;;;;;8.97;2.57;;;16.30;99.90;;;;;;4994987;28;20186;-68
2022/09/22 12:12:32;;;;;;;6.20;2.33;;;16.30;99.90;;;;;;5051247;28;20744;-68
2022/09/22 12:15:16;;;;;;;8.00;2.70;;;16.30;99.90;;;;;;5071776;28;20588;-70
2022/09/22 12:17:58;;;;;;;7.03;2.53;;;16.30;99.90;;;;;;5064068;28;20565;-68
2022/09/22 12:20:44;;;;;;;7.37;3.10;;;16.20;99.90;;;;;;5067047;28;20223;-69
2022/09/22 12:23:20;;;;;;;8.73;2.63;;;16.10;99.90;;;;;;5071918;28;20191;-69
2022/09/22 12:25:53;;;;;;;5.73;2.10;;;16.10;99.90;;;;;;5072758;28;20693;-68
2022/09/22 12:28:26;;;;;;;5.87;2.40;;;16.00;99.90;;;;;;5072861;28;20555;-68
2022/09/22 12:31:05;;;;;;;8.03;2.73;;;16.10;99.90;;;;;;5068149;28;20181;-69
2022/09/22 12:33:34;;;;;;;11.30;2.37;;;16.00;99.90;;;;;;5052860;28;20180;-69
2022/09/22 12:36:03;;;;;;;5.83;2.10;;;16.00;99.90;;;;;;5054642;28;20200;-69
2022/09/22 12:38:31;;;;;;;6.60;2.13;;;15.90;99.90;;;;;;5072658;28;20675;-68
2022/09/22 12:41:02;;;;;;;8.97;2.60;;;15.90;99.90;;;;;;5072521;28;20184;-68
2022/09/22 12:43:33;;;;;;;7.90;2.17;;;15.90;99.90;;;;;;5061527;28;20238;-69
2022/09/22 12:46:05;;;;;;;6.97;2.30;;;15.90;99.90;;;;;;5063811;28;20176;-69
2022/09/22 12:48:35;;;;;;;5.37;2.13;;;15.90;99.90;;;;;;5070519;28;20552;-69
2022/09/22 12:51:38;;;;;;;10.50;2.43;;;15.90;99.90;;;;;;5071990;28;20180;-69
2022/09/22 12:54:36;;;;;;;7.63;2.70;;;15.80;99.90;;;;;;5010403;28;20197;-69
2022/09/22 12:57:23;;;;;;;9.83;2.57;;;15.80;99.90;;;;;;5051653;28;20225;-69
2022/09/22 13:00:06;;;;;;;8.43;2.23;;;15.80;99.90;;;;;;5066485;28;20259;-69
2022/09/22 13:02:42;;;;;;;5.73;2.53;;;15.80;99.90;;;;;;5071632;28;20725;-69
2022/09/22 13:05:09;;;;;;;5.00;2.37;;;15.70;99.90;;;;;;5073635;28;20172;-70
2022/09/22 13:07:42;;;;;;;8.27;2.77;;;15.60;99.90;;;;;;5072183;28;20572;-69
2022/09/22 13:10:21;;;;;;;5.90;2.97;;;15.60;99.90;;;;;;5072874;28;20663;-69
2022/09/22 13:13:08;;;;;;;10.30;3.30;;;15.60;99.90;;;;;;5073385;28;20187;-70
2022/09/22 13:15:50;;;;;;;11.17;3.40;;;15.60;99.90;;;;;;5073989;28;20174;-69
2022/09/22 13:18:38;;;;;;;7.93;3.63;;;15.70;99.90;;;;;;5073955;28;20188;-69
2022/09/22 13:21:15;;;;;;;6.73;3.67;;;15.70;99.90;;;;;;5073245;28;20518;-69
2022/09/22 13:23:51;;;;;;;7.47;3.30;;;15.70;99.90;;;;;;5073352;28;20562;-69
2022/09/22 13:26:28;;;;;;;7.87;3.80;;;15.60;99.90;;;;;;5073329;28;20712;-69
2022/09/22 13:29:10;;;;;;;5.80;3.23;;;15.70;99.90;;;;;;5073380;28;20218;-69
2022/09/22 13:31:44;;;;;;;8.47;4.13;;;15.70;99.90;;;;;;5073325;28;20223;-68
2022/09/22 13:34:19;;;;;;;8.20;3.87;;;15.70;99.90;;;;;;5073351;28;20173;-68
2022/09/22 13:36:48;;;;;;;11.87;4.50;;;15.70;99.90;;;;;;5073112;28;20679;-68
2022/09/22 13:39:20;;;;;;;8.93;3.60;;;15.70;99.90;;;;;;5066751;28;20176;-69
2022/09/22 13:41:58;;;;;;;7.20;3.13;;;15.60;99.90;;;;;;5053263;28;20634;-69